sensor_id;sensor_type;location;lat;lon;timestamp;P1;durP1;ratioP1;P2;durP2;ratioP2
41167;SDS011;26906;45.658;9.272;2024-03-22T06:36:24;83.22;;;47.58;;
41167;SDS011;26906;45.658;9.272;2024-03-22T06:38:50;74.97;;;46.95;;
41167;SDS011;26906;45.658;9.272;2024-03-22T06:41:16;75.10;;;47.15;;
41167;SDS011;26906;45.658;9.272;2024-03-22T06:43:41;94.88;;;52.95;;
41167;SDS011;26906;45.658;9.272;2024-03-22T06:46:07;90.40;;;55.65;;
41167;SDS011;26906;45.658;9.272;2024-03-22T06:48:34;95.53;;;56.65;;
41167;SDS011;26906;45.658;9.272;2024-03-22T06:51:01;96.43;;;57.83;;
41167;SDS011;26906;45.658;9.272;2024-03-22T06:53:27;98.32;;;58.03;;
41167;SDS011;26906;45.658;9.272;2024-03-22T06:55:52;103.47;;;57.08;;
41167;SDS011;26906;45.658;9.272;2024-03-22T06:58:18;99.30;;;55.33;;
41167;SDS011;26906;45.658;9.272;2024-03-22T07:00:43;99.72;;;57.47;;
41167;SDS011;26906;45.658;9.272;2024-03-22T07:03:09;91.95;;;56.63;;
41167;SDS011;26906;45.658;9.272;2024-03-22T07:05:35;92.85;;;55.15;;
41167;SDS011;26906;45.658;9.272;2024-03-22T07:08:00;86.30;;;54.38;;
41167;SDS011;26906;45.658;9.272;2024-03-22T07:10:26;87.00;;;52.30;;
41167;SDS011;26906;45.658;9.272;2024-03-22T07:12:53;83.03;;;52.42;;
41167;SDS011;26906;45.658;9.272;2024-03-22T07:15:20;82.68;;;50.42;;
41167;SDS011;26906;45.658;9.272;2024-03-22T07:17:48;83.75;;;51.05;;
41167;SDS011;26906;45.658;9.272;2024-03-22T07:20:13;83.22;;;48.67;;
41167;SDS011;26906;45.658;9.272;2024-03-22T07:22:39;82.72;;;52.45;;
41167;SDS011;26906;45.658;9.272;2024-03-22T07:25:05;79.65;;;49.42;;
41167;SDS011;26906;45.658;9.272;2024-03-22T07:27:30;90.43;;;51.60;;
41167;SDS011;26906;45.658;9.272;2024-03-22T07:29:57;79.30;;;49.55;;
41167;SDS011;26906;45.658;9.272;2024-03-22T07:32:22;77.82;;;49.65;;
41167;SDS011;26906;45.658;9.272;2024-03-22T07:34:48;78.68;;;49.05;;
41167;SDS011;26906;45.658;9.272;2024-03-22T07:37:14;79.38;;;49.55;;
41167;SDS011;26906;45.658;9.272;2024-03-22T07:39:39;79.72;;;48.00;;
41167;SDS011;26906;45.658;9.272;2024-03-22T07:42:05;80.18;;;49.33;;
41167;SDS011;26906;45.658;9.272;2024-03-22T07:44:31;91.72;;;53.42;;
41167;SDS011;26906;45.658;9.272;2024-03-22T07:46:57;92.38;;;55.40;;
41167;SDS011;26906;45.658;9.272;2024-03-22T07:49:24;84.30;;;50.60;;
41167;SDS011;26906;45.658;9.272;2024-03-22T07:51:49;91.20;;;51.65;;
41167;SDS011;26906;45.658;9.272;2024-03-22T07:54:16;79.80;;;49.42;;
41167;SDS011;26906;45.658;9.272;2024-03-22T07:56:41;80.45;;;50.42;;
41167;SDS011;26906;45.658;9.272;2024-03-22T07:59:07;85.90;;;50.65;;
41167;SDS011;26906;45.658;9.272;2024-03-22T08:01:33;79.15;;;47.17;;
41167;SDS011;26906;45.658;9.272;2024-03-22T08:03:58;70.65;;;44.50;;
41167;SDS011;26906;45.658;9.272;2024-03-22T08:06:24;77.35;;;46.15;;
41167;SDS011;26906;45.658;9.272;2024-03-22T08:08:50;70.70;;;45.15;;
41167;SDS011;26906;45.658;9.272;2024-03-22T08:11:16;83.32;;;50.85;;
41167;SDS011;26906;45.658;9.272;2024-03-22T08:13:42;82.32;;;50.92;;
41167;SDS011;26906;45.658;9.272;2024-03-22T08:16:07;80.97;;;51.00;;
41167;SDS011;26906;45.658;9.272;2024-03-22T08:18:33;83.05;;;50.75;;
41167;SDS011;26906;45.658;9.272;2024-03-22T08:20:59;79.57;;;48.65;;
41167;SDS011;26906;45.658;9.272;2024-03-22T08:23:24;74.70;;;47.97;;
41167;SDS011;26906;45.658;9.272;2024-03-22T08:25:50;72.43;;;48.33;;
41167;SDS011;26906;45.658;9.272;2024-03-22T08:28:16;78.90;;;48.45;;
41167;SDS011;26906;45.658;9.272;2024-03-22T08:30:43;79.30;;;49.85;;
41167;SDS011;26906;45.658;9.272;2024-03-22T08:33:09;79.20;;;50.03;;
41167;SDS011;26906;45.658;9.272;2024-03-22T08:35:35;75.47;;;49.33;;
41167;SDS011;26906;45.658;9.272;2024-03-22T08:38:01;76.18;;;49.55;;
41167;SDS011;26906;45.658;9.272;2024-03-22T08:40:27;80.63;;;50.72;;
41167;SDS011;26906;45.658;9.272;2024-03-22T08:42:52;80.97;;;51.08;;
41167;SDS011;26906;45.658;9.272;2024-03-22T08:45:18;78.00;;;49.83;;
41167;SDS011;26906;45.658;9.272;2024-03-22T08:47:43;75.47;;;47.35;;
41167;SDS011;26906;45.658;9.272;2024-03-22T08:50:12;73.38;;;47.97;;
41167;SDS011;26906;45.658;9.272;2024-03-22T08:52:38;72.75;;;47.90;;
41167;SDS011;26906;45.658;9.272;2024-03-22T08:55:04;75.55;;;49.20;;
41167;SDS011;26906;45.658;9.272;2024-03-22T08:57:32;72.10;;;48.72;;
41167;SDS011;26906;45.658;9.272;2024-03-22T09:00:00;75.38;;;49.17;;
41167;SDS011;26906;45.658;9.272;2024-03-22T09:02:26;73.00;;;48.15;;
41167;SDS011;26906;45.658;9.272;2024-03-22T09:04:54;77.60;;;48.95;;
41167;SDS011;26906;45.658;9.272;2024-03-22T09:07:20;75.13;;;47.47;;
41167;SDS011;26906;45.658;9.272;2024-03-22T09:09:46;68.63;;;46.45;;
41167;SDS011;26906;45.658;9.272;2024-03-22T09:12:14;69.68;;;47.33;;
41167;SDS011;26906;45.658;9.272;2024-03-22T09:14:39;69.50;;;46.88;;
41167;SDS011;26906;45.658;9.272;2024-03-22T09:17:07;74.10;;;46.45;;
41167;SDS011;26906;45.658;9.272;2024-03-22T09:19:32;74.65;;;48.17;;
41167;SDS011;26906;45.658;9.272;2024-03-22T09:21:58;74.15;;;47.60;;
41167;SDS011;26906;45.658;9.272;2024-03-22T09:24:25;71.57;;;47.40;;
41167;SDS011;26906;45.658;9.272;2024-03-22T09:26:50;75.97;;;48.08;;
41167;SDS011;26906;45.658;9.272;2024-03-22T09:29:16;72.15;;;47.47;;
41167;SDS011;26906;45.658;9.272;2024-03-22T09:31:43;72.50;;;47.47;;
41167;SDS011;26906;45.658;9.272;2024-03-22T09:34:08;70.53;;;46.40;;
41167;SDS011;26906;45.658;9.272;2024-03-22T09:39:37;73.22;;;46.10;;
41167;SDS011;26906;45.658;9.272;2024-03-22T09:42:04;70.05;;;45.30;;
41167;SDS011;26906;45.658;9.272;2024-03-22T09:44:31;70.18;;;46.25;;
41167;SDS011;26906;45.658;9.272;2024-03-22T09:46:58;68.20;;;44.25;;
41167;SDS011;26906;45.658;9.272;2024-03-22T09:49:24;70.13;;;45.83;;
41167;SDS011;26906;45.658;9.272;2024-03-22T09:51:51;66.95;;;45.35;;
41167;SDS011;26906;45.658;9.272;2024-03-22T09:54:17;63.88;;;43.25;;
41167;SDS011;26906;45.658;9.272;2024-03-22T09:56:44;65.50;;;41.33;;
41167;SDS011;26906;45.658;9.272;2024-03-22T09:59:12;62.40;;;42.20;;
41167;SDS011;26906;45.658;9.272;2024-03-22T10:01:38;61.85;;;40.55;;
41167;SDS011;26906;45.658;9.272;2024-03-22T10:04:06;62.55;;;42.72;;
41167;SDS011;26906;45.658;9.272;2024-03-22T10:06:32;63.78;;;42.30;;
41167;SDS011;26906;45.658;9.272;2024-03-22T10:08:58;66.38;;;41.83;;
41167;SDS011;26906;45.658;9.272;2024-03-22T10:11:28;54.55;;;38.28;;
41167;SDS011;26906;45.658;9.272;2024-03-22T10:13:54;60.08;;;40.15;;
41167;SDS011;26906;45.658;9.272;2024-03-22T10:16:21;59.92;;;38.13;;
41167;SDS011;26906;45.658;9.272;2024-03-22T10:18:47;58.83;;;38.28;;
41167;SDS011;26906;45.658;9.272;2024-03-22T10:21:16;56.08;;;37.88;;
41167;SDS011;26906;45.658;9.272;2024-03-22T10:23:46;62.75;;;41.83;;
41167;SDS011;26906;45.658;9.272;2024-03-22T10:26:13;64.50;;;40.45;;
41167;SDS011;26906;45.658;9.272;2024-03-22T10:28:46;59.78;;;39.28;;
41167;SDS011;26906;45.658;9.272;2024-03-22T10:31:12;53.22;;;35.08;;
41167;SDS011;26906;45.658;9.272;2024-03-22T10:33:38;51.58;;;33.92;;
41167;SDS011;26906;45.658;9.272;2024-03-22T10:36:06;35.85;;;23.05;;
41167;SDS011;26906;45.658;9.272;2024-03-22T10:38:32;29.70;;;20.98;;
41167;SDS011;26906;45.658;9.272;2024-03-22T10:41:01;42.47;;;26.45;;
41167;SDS011;26906;45.658;9.272;2024-03-22T10:43:28;40.22;;;26.48;;
41167;SDS011;26906;45.658;9.272;2024-03-22T10:45:54;40.38;;;24.90;;
41167;SDS011;26906;45.658;9.272;2024-03-22T10:48:25;42.63;;;30.48;;
41167;SDS011;26906;45.658;9.272;2024-03-22T10:50:54;30.95;;;21.38;;
41167;SDS011;26906;45.658;9.272;2024-03-22T10:53:23;45.22;;;30.52;;
41167;SDS011;26906;45.658;9.272;2024-03-22T10:55:50;51.95;;;34.97;;
41167;SDS011;26906;45.658;9.272;2024-03-22T10:58:18;52.05;;;32.30;;
41167;SDS011;26906;45.658;9.272;2024-03-22T11:00:46;57.15;;;33.10;;
41167;SDS011;26906;45.658;9.272;2024-03-22T11:03:12;47.25;;;31.98;;
41167;SDS011;26906;45.658;9.272;2024-03-22T11:05:47;51.47;;;34.10;;
41167;SDS011;26906;45.658;9.272;2024-03-22T11:08:27;49.50;;;34.65;;
41167;SDS011;26906;45.658;9.272;2024-03-22T11:10:54;56.85;;;34.55;;
41167;SDS011;26906;45.658;9.272;2024-03-22T11:13:22;49.58;;;32.25;;
41167;SDS011;26906;45.658;9.272;2024-03-22T11:15:50;52.33;;;31.85;;
41167;SDS011;26906;45.658;9.272;2024-03-22T11:18:17;44.50;;;30.15;;
41167;SDS011;26906;45.658;9.272;2024-03-22T11:20:43;44.08;;;28.70;;
41167;SDS011;26906;45.658;9.272;2024-03-22T11:23:11;47.13;;;26.88;;
41167;SDS011;26906;45.658;9.272;2024-03-22T11:25:37;42.30;;;25.75;;
41167;SDS011;26906;45.658;9.272;2024-03-22T11:28:03;40.90;;;26.35;;
41167;SDS011;26906;45.658;9.272;2024-03-22T11:30:30;46.55;;;31.02;;
41167;SDS011;26906;45.658;9.272;2024-03-22T11:32:57;43.97;;;28.25;;
41167;SDS011;26906;45.658;9.272;2024-03-22T11:35:22;36.47;;;24.88;;
41167;SDS011;26906;45.658;9.272;2024-03-22T11:37:49;36.55;;;25.42;;
41167;SDS011;26906;45.658;9.272;2024-03-22T11:40:16;41.85;;;27.70;;
41167;SDS011;26906;45.658;9.272;2024-03-22T11:42:43;41.92;;;27.35;;
41167;SDS011;26906;45.658;9.272;2024-03-22T11:47:43;33.05;;;21.75;;
41167;SDS011;26906;45.658;9.272;2024-03-22T11:50:11;37.92;;;23.17;;
41167;SDS011;26906;45.658;9.272;2024-03-22T11:52:40;39.03;;;27.70;;
41167;SDS011;26906;45.658;9.272;2024-03-22T11:55:11;37.55;;;26.30;;
41167;SDS011;26906;45.658;9.272;2024-03-22T11:57:38;35.08;;;25.13;;
41167;SDS011;26906;45.658;9.272;2024-03-22T12:00:03;39.42;;;26.65;;
41167;SDS011;26906;45.658;9.272;2024-03-22T12:02:43;39.05;;;27.35;;
41167;SDS011;26906;45.658;9.272;2024-03-22T12:05:09;36.95;;;25.70;;
41167;SDS011;26906;45.658;9.272;2024-03-22T12:07:36;35.55;;;24.52;;
41167;SDS011;26906;45.658;9.272;2024-03-22T12:10:02;37.53;;;25.52;;
41167;SDS011;26906;45.658;9.272;2024-03-22T12:12:29;38.88;;;26.25;;
41167;SDS011;26906;45.658;9.272;2024-03-22T12:14:55;33.60;;;23.85;;
41167;SDS011;26906;45.658;9.272;2024-03-22T12:17:21;34.95;;;23.67;;
41167;SDS011;26906;45.658;9.272;2024-03-22T12:19:46;35.40;;;24.75;;
41167;SDS011;26906;45.658;9.272;2024-03-22T12:22:12;33.95;;;23.67;;
41167;SDS011;26906;45.658;9.272;2024-03-22T12:24:39;37.10;;;23.40;;
41167;SDS011;26906;45.658;9.272;2024-03-22T12:27:05;32.45;;;23.92;;
41167;SDS011;26906;45.658;9.272;2024-03-22T12:29:34;34.50;;;23.90;;
41167;SDS011;26906;45.658;9.272;2024-03-22T12:32:01;31.10;;;22.05;;
41167;SDS011;26906;45.658;9.272;2024-03-22T12:34:28;38.75;;;24.23;;
41167;SDS011;26906;45.658;9.272;2024-03-22T12:36:59;31.17;;;20.95;;
41167;SDS011;26906;45.658;9.272;2024-03-22T12:39:25;31.20;;;22.25;;
41167;SDS011;26906;45.658;9.272;2024-03-22T12:41:50;32.42;;;23.08;;
41167;SDS011;26906;45.658;9.272;2024-03-22T12:44:17;30.17;;;22.83;;
41167;SDS011;26906;45.658;9.272;2024-03-22T12:46:43;39.13;;;24.02;;
41167;SDS011;26906;45.658;9.272;2024-03-22T12:49:10;37.05;;;22.77;;
41167;SDS011;26906;45.658;9.272;2024-03-22T12:51:36;34.92;;;23.60;;
41167;SDS011;26906;45.658;9.272;2024-03-22T12:54:03;32.00;;;23.92;;
41167;SDS011;26906;45.658;9.272;2024-03-22T12:56:30;38.80;;;25.23;;
41167;SDS011;26906;45.658;9.272;2024-03-22T12:58:58;35.22;;;26.65;;
41167;SDS011;26906;45.658;9.272;2024-03-22T13:01:24;39.10;;;25.77;;
41167;SDS011;26906;45.658;9.272;2024-03-22T13:03:52;36.92;;;25.75;;
41167;SDS011;26906;45.658;9.272;2024-03-22T13:06:18;37.30;;;25.60;;
41167;SDS011;26906;45.658;9.272;2024-03-22T13:08:44;40.80;;;25.58;;
41167;SDS011;26906;45.658;9.272;2024-03-22T13:11:10;32.25;;;23.70;;
41167;SDS011;26906;45.658;9.272;2024-03-22T13:13:36;36.13;;;25.13;;
41167;SDS011;26906;45.658;9.272;2024-03-22T13:16:02;30.90;;;22.48;;
41167;SDS011;26906;45.658;9.272;2024-03-22T13:18:28;31.05;;;20.95;;
41167;SDS011;26906;45.658;9.272;2024-03-22T13:20:54;36.75;;;21.48;;
41167;SDS011;26906;45.658;9.272;2024-03-22T13:23:20;27.23;;;20.35;;
41167;SDS011;26906;45.658;9.272;2024-03-22T13:25:46;30.52;;;20.13;;
41167;SDS011;26906;45.658;9.272;2024-03-22T13:28:11;30.58;;;19.55;;
41167;SDS011;26906;45.658;9.272;2024-03-22T13:30:37;29.92;;;20.02;;
41167;SDS011;26906;45.658;9.272;2024-03-22T13:33:04;29.55;;;19.65;;
41167;SDS011;26906;45.658;9.272;2024-03-22T13:35:29;26.92;;;18.25;;
41167;SDS011;26906;45.658;9.272;2024-03-22T13:37:55;25.40;;;18.52;;
41167;SDS011;26906;45.658;9.272;2024-03-22T13:40:21;25.85;;;17.88;;
41167;SDS011;26906;45.658;9.272;2024-03-22T13:42:47;25.27;;;17.80;;
41167;SDS011;26906;45.658;9.272;2024-03-22T13:45:13;25.70;;;19.48;;
41167;SDS011;26906;45.658;9.272;2024-03-22T13:47:39;30.75;;;19.60;;
41167;SDS011;26906;45.658;9.272;2024-03-22T13:50:08;27.15;;;19.13;;
41167;SDS011;26906;45.658;9.272;2024-03-22T13:52:34;27.63;;;19.42;;
41167;SDS011;26906;45.658;9.272;2024-03-22T13:55:04;26.83;;;19.38;;
41167;SDS011;26906;45.658;9.272;2024-03-22T13:57:30;26.10;;;18.98;;
41167;SDS011;26906;45.658;9.272;2024-03-22T13:59:56;28.02;;;19.27;;
41167;SDS011;26906;45.658;9.272;2024-03-22T14:02:22;28.02;;;18.35;;
41167;SDS011;26906;45.658;9.272;2024-03-22T14:04:48;25.25;;;18.45;;
41167;SDS011;26906;45.658;9.272;2024-03-22T14:07:13;28.55;;;18.30;;
41167;SDS011;26906;45.658;9.272;2024-03-22T14:09:40;25.92;;;18.83;;
41167;SDS011;26906;45.658;9.272;2024-03-22T14:12:06;28.52;;;19.55;;
41167;SDS011;26906;45.658;9.272;2024-03-22T14:14:31;28.13;;;20.05;;
41167;SDS011;26906;45.658;9.272;2024-03-22T14:16:58;27.55;;;18.90;;
41167;SDS011;26906;45.658;9.272;2024-03-22T14:19:24;27.00;;;19.65;;
41167;SDS011;26906;45.658;9.272;2024-03-22T14:21:51;30.48;;;18.75;;
41167;SDS011;26906;45.658;9.272;2024-03-22T14:24:18;32.67;;;21.23;;
41167;SDS011;26906;45.658;9.272;2024-03-22T14:26:44;30.85;;;21.63;;
41167;SDS011;26906;45.658;9.272;2024-03-22T14:29:10;29.27;;;21.08;;
41167;SDS011;26906;45.658;9.272;2024-03-22T14:31:38;34.90;;;24.52;;
41167;SDS011;26906;45.658;9.272;2024-03-22T14:34:08;33.78;;;22.90;;
41167;SDS011;26906;45.658;9.272;2024-03-22T14:36:34;31.52;;;22.27;;
41167;SDS011;26906;45.658;9.272;2024-03-22T14:39:00;41.30;;;23.65;;
41167;SDS011;26906;45.658;9.272;2024-03-22T14:41:31;37.30;;;24.08;;
41167;SDS011;26906;45.658;9.272;2024-03-22T14:43:59;35.15;;;23.08;;
41167;SDS011;26906;45.658;9.272;2024-03-22T14:46:26;32.72;;;20.90;;
41167;SDS011;26906;45.658;9.272;2024-03-22T14:48:54;33.40;;;21.35;;
41167;SDS011;26906;45.658;9.272;2024-03-22T14:51:20;34.53;;;22.10;;
41167;SDS011;26906;45.658;9.272;2024-03-22T14:53:46;33.28;;;19.60;;
41167;SDS011;26906;45.658;9.272;2024-03-22T14:56:12;30.95;;;20.40;;
41167;SDS011;26906;45.658;9.272;2024-03-22T14:58:39;30.60;;;21.15;;
41167;SDS011;26906;45.658;9.272;2024-03-22T15:01:04;30.38;;;20.52;;
41167;SDS011;26906;45.658;9.272;2024-03-22T15:03:31;29.65;;;19.83;;
41167;SDS011;26906;45.658;9.272;2024-03-22T15:05:57;27.95;;;19.85;;
41167;SDS011;26906;45.658;9.272;2024-03-22T15:08:26;30.30;;;20.60;;
41167;SDS011;26906;45.658;9.272;2024-03-22T15:10:53;30.02;;;19.50;;
41167;SDS011;26906;45.658;9.272;2024-03-22T15:13:19;28.77;;;19.73;;
41167;SDS011;26906;45.658;9.272;2024-03-22T15:15:55;30.88;;;20.58;;
41167;SDS011;26906;45.658;9.272;2024-03-22T15:18:21;33.63;;;18.98;;
41167;SDS011;26906;45.658;9.272;2024-03-22T15:20:48;27.35;;;17.75;;
41167;SDS011;26906;45.658;9.272;2024-03-22T15:23:14;34.95;;;20.73;;
41167;SDS011;26906;45.658;9.272;2024-03-22T15:25:40;28.73;;;18.63;;
41167;SDS011;26906;45.658;9.272;2024-03-22T15:28:09;28.55;;;19.85;;
41167;SDS011;26906;45.658;9.272;2024-03-22T15:30:36;31.15;;;19.40;;
41167;SDS011;26906;45.658;9.272;2024-03-22T15:33:03;29.65;;;20.52;;
41167;SDS011;26906;45.658;9.272;2024-03-22T15:35:31;26.52;;;18.40;;
41167;SDS011;26906;45.658;9.272;2024-03-22T15:37:57;35.30;;;18.92;;
41167;SDS011;26906;45.658;9.272;2024-03-22T15:40:23;30.05;;;18.63;;
41167;SDS011;26906;45.658;9.272;2024-03-22T15:42:49;29.27;;;18.63;;
41167;SDS011;26906;45.658;9.272;2024-03-22T15:45:16;31.58;;;19.58;;
41167;SDS011;26906;45.658;9.272;2024-03-22T15:47:42;24.90;;;18.52;;
41167;SDS011;26906;45.658;9.272;2024-03-22T15:50:08;30.55;;;18.13;;
41167;SDS011;26906;45.658;9.272;2024-03-22T15:52:35;30.23;;;17.77;;
41167;SDS011;26906;45.658;9.272;2024-03-22T15:55:00;29.92;;;17.98;;
41167;SDS011;26906;45.658;9.272;2024-03-22T15:57:26;31.08;;;19.20;;
41167;SDS011;26906;45.658;9.272;2024-03-22T15:59:53;25.58;;;18.95;;
41167;SDS011;26906;45.658;9.272;2024-03-22T16:02:18;25.33;;;18.38;;
41167;SDS011;26906;45.658;9.272;2024-03-22T16:04:44;28.35;;;18.58;;
41167;SDS011;26906;45.658;9.272;2024-03-22T16:07:10;31.88;;;18.23;;
41167;SDS011;26906;45.658;9.272;2024-03-22T16:09:36;27.50;;;17.58;;
41167;SDS011;26906;45.658;9.272;2024-03-22T16:12:05;27.05;;;18.27;;
41167;SDS011;26906;45.658;9.272;2024-03-22T16:14:32;28.20;;;17.90;;
41167;SDS011;26906;45.658;9.272;2024-03-22T16:16:58;29.48;;;17.85;;
41167;SDS011;26906;45.658;9.272;2024-03-22T16:19:24;27.85;;;17.73;;
41167;SDS011;26906;45.658;9.272;2024-03-22T16:21:50;26.95;;;17.30;;
41167;SDS011;26906;45.658;9.272;2024-03-22T16:24:16;26.40;;;15.85;;
41167;SDS011;26906;45.658;9.272;2024-03-22T16:26:44;35.65;;;16.38;;
41167;SDS011;26906;45.658;9.272;2024-03-22T16:29:13;25.50;;;14.98;;
41167;SDS011;26906;45.658;9.272;2024-03-22T16:31:39;27.77;;;16.10;;
41167;SDS011;26906;45.658;9.272;2024-03-22T16:34:05;21.73;;;15.00;;
41167;SDS011;26906;45.658;9.272;2024-03-22T16:36:31;22.95;;;15.27;;
41167;SDS011;26906;45.658;9.272;2024-03-22T16:38:58;26.42;;;14.52;;
41167;SDS011;26906;45.658;9.272;2024-03-22T16:41:23;32.28;;;15.48;;
41167;SDS011;26906;45.658;9.272;2024-03-22T16:43:49;29.27;;;15.55;;
41167;SDS011;26906;45.658;9.272;2024-03-22T16:46:15;24.13;;;14.75;;
41167;SDS011;26906;45.658;9.272;2024-03-22T16:48:41;22.65;;;13.75;;
41167;SDS011;26906;45.658;9.272;2024-03-22T16:51:07;26.80;;;15.95;;
41167;SDS011;26906;45.658;9.272;2024-03-22T16:53:33;28.55;;;18.33;;
41167;SDS011;26906;45.658;9.272;2024-03-22T16:55:59;38.72;;;25.92;;
41167;SDS011;26906;45.658;9.272;2024-03-22T16:58:24;44.80;;;26.67;;
41167;SDS011;26906;45.658;9.272;2024-03-22T17:00:51;50.90;;;28.73;;
41167;SDS011;26906;45.658;9.272;2024-03-22T17:03:19;47.50;;;28.60;;
41167;SDS011;26906;45.658;9.272;2024-03-22T17:05:44;49.83;;;30.17;;
41167;SDS011;26906;45.658;9.272;2024-03-22T17:08:10;51.65;;;31.40;;
41167;SDS011;26906;45.658;9.272;2024-03-22T17:10:40;56.00;;;31.55;;
41167;SDS011;26906;45.658;9.272;2024-03-22T17:13:07;52.63;;;32.10;;
41167;SDS011;26906;45.658;9.272;2024-03-22T17:15:33;49.50;;;33.50;;
41167;SDS011;26906;45.658;9.272;2024-03-22T17:18:00;52.38;;;34.35;;
41167;SDS011;26906;45.658;9.272;2024-03-22T17:20:27;55.58;;;33.55;;
41167;SDS011;26906;45.658;9.272;2024-03-22T17:22:55;58.95;;;34.97;;
41167;SDS011;26906;45.658;9.272;2024-03-22T17:25:20;55.67;;;34.53;;
41167;SDS011;26906;45.658;9.272;2024-03-22T17:27:48;55.80;;;33.88;;
41167;SDS011;26906;45.658;9.272;2024-03-22T17:30:14;51.75;;;34.80;;
41167;SDS011;26906;45.658;9.272;2024-03-22T17:32:40;55.63;;;34.92;;
41167;SDS011;26906;45.658;9.272;2024-03-22T17:35:06;56.42;;;35.72;;
41167;SDS011;26906;45.658;9.272;2024-03-22T17:37:32;55.80;;;36.10;;
41167;SDS011;26906;45.658;9.272;2024-03-22T17:39:57;60.58;;;34.95;;
41167;SDS011;26906;45.658;9.272;2024-03-22T17:42:23;54.10;;;35.75;;
41167;SDS011;26906;45.658;9.272;2024-03-22T17:44:49;58.15;;;36.20;;
41167;SDS011;26906;45.658;9.272;2024-03-22T17:47:15;61.42;;;37.15;;
41167;SDS011;26906;45.658;9.272;2024-03-22T17:49:42;57.75;;;36.17;;
41167;SDS011;26906;45.658;9.272;2024-03-22T17:52:09;60.05;;;36.55;;
41167;SDS011;26906;45.658;9.272;2024-03-22T17:54:35;61.85;;;40.53;;
41167;SDS011;26906;45.658;9.272;2024-03-22T17:57:01;62.95;;;40.88;;
41167;SDS011;26906;45.658;9.272;2024-03-22T17:59:31;63.72;;;41.20;;
41167;SDS011;26906;45.658;9.272;2024-03-22T18:01:57;63.25;;;39.92;;
41167;SDS011;26906;45.658;9.272;2024-03-22T18:04:23;62.45;;;39.25;;
41167;SDS011;26906;45.658;9.272;2024-03-22T18:06:49;58.20;;;36.83;;
41167;SDS011;26906;45.658;9.272;2024-03-22T18:09:14;59.38;;;37.30;;
41167;SDS011;26906;45.658;9.272;2024-03-22T18:11:41;56.92;;;37.60;;
41167;SDS011;26906;45.658;9.272;2024-03-22T18:14:07;66.50;;;38.97;;
41167;SDS011;26906;45.658;9.272;2024-03-22T18:16:32;58.97;;;38.65;;
41167;SDS011;26906;45.658;9.272;2024-03-22T18:19:00;59.95;;;37.67;;
41167;SDS011;26906;45.658;9.272;2024-03-22T18:21:26;59.53;;;38.67;;
41167;SDS011;26906;45.658;9.272;2024-03-22T18:23:52;54.10;;;37.10;;
41167;SDS011;26906;45.658;9.272;2024-03-22T18:26:21;62.40;;;35.25;;
41167;SDS011;26906;45.658;9.272;2024-03-22T18:28:48;52.25;;;35.42;;
41167;SDS011;26906;45.658;9.272;2024-03-22T18:31:14;56.53;;;36.30;;
41167;SDS011;26906;45.658;9.272;2024-03-22T18:33:39;59.17;;;36.92;;
41167;SDS011;26906;45.658;9.272;2024-03-22T18:36:05;54.75;;;35.40;;
41167;SDS011;26906;45.658;9.272;2024-03-22T18:38:31;54.72;;;36.83;;
41167;SDS011;26906;45.658;9.272;2024-03-22T18:41:02;59.95;;;36.97;;
41167;SDS011;26906;45.658;9.272;2024-03-22T18:43:32;55.97;;;37.10;;
41167;SDS011;26906;45.658;9.272;2024-03-22T18:46:02;60.05;;;38.05;;
41167;SDS011;26906;45.658;9.272;2024-03-22T18:48:29;57.03;;;37.70;;
41167;SDS011;26906;45.658;9.272;2024-03-22T18:50:54;57.00;;;35.53;;
41167;SDS011;26906;45.658;9.272;2024-03-22T18:53:20;59.67;;;37.38;;
41167;SDS011;26906;45.658;9.272;2024-03-22T18:55:46;52.78;;;35.28;;
41167;SDS011;26906;45.658;9.272;2024-03-22T18:58:15;53.67;;;35.83;;
41167;SDS011;26906;45.658;9.272;2024-03-22T19:00:41;60.08;;;35.15;;
41167;SDS011;26906;45.658;9.272;2024-03-22T19:03:08;63.45;;;39.08;;
41167;SDS011;26906;45.658;9.272;2024-03-22T19:05:34;61.20;;;37.90;;
41167;SDS011;26906;45.658;9.272;2024-03-22T19:07:59;72.30;;;36.05;;
41167;SDS011;26906;45.658;9.272;2024-03-22T19:10:27;57.08;;;36.30;;
41167;SDS011;26906;45.658;9.272;2024-03-22T19:12:53;62.67;;;35.53;;
41167;SDS011;26906;45.658;9.272;2024-03-22T19:15:19;59.13;;;36.50;;
41167;SDS011;26906;45.658;9.272;2024-03-22T19:17:46;57.83;;;36.40;;
41167;SDS011;26906;45.658;9.272;2024-03-22T19:20:11;56.83;;;36.83;;
41167;SDS011;26906;45.658;9.272;2024-03-22T19:22:38;62.47;;;39.08;;
41167;SDS011;26906;45.658;9.272;2024-03-22T19:25:04;58.47;;;36.53;;
41167;SDS011;26906;45.658;9.272;2024-03-22T19:27:29;58.83;;;37.17;;
41167;SDS011;26906;45.658;9.272;2024-03-22T19:29:55;60.33;;;37.63;;
41167;SDS011;26906;45.658;9.272;2024-03-22T19:32:22;58.45;;;37.00;;
41167;SDS011;26906;45.658;9.272;2024-03-22T19:34:48;56.38;;;36.53;;
41167;SDS011;26906;45.658;9.272;2024-03-22T19:37:14;61.55;;;37.20;;
41167;SDS011;26906;45.658;9.272;2024-03-22T19:39:43;62.65;;;37.85;;
41167;SDS011;26906;45.658;9.272;2024-03-22T19:42:09;58.58;;;38.97;;
41167;SDS011;26906;45.658;9.272;2024-03-22T19:44:35;61.00;;;37.10;;
41167;SDS011;26906;45.658;9.272;2024-03-22T19:47:02;60.08;;;36.45;;
41167;SDS011;26906;45.658;9.272;2024-03-22T19:49:28;53.00;;;33.88;;
41167;SDS011;26906;45.658;9.272;2024-03-22T19:51:54;58.85;;;37.50;;
41167;SDS011;26906;45.658;9.272;2024-03-22T19:54:20;62.88;;;38.92;;
41167;SDS011;26906;45.658;9.272;2024-03-22T19:56:46;60.25;;;36.75;;
41167;SDS011;26906;45.658;9.272;2024-03-22T19:59:13;56.78;;;36.22;;
41167;SDS011;26906;45.658;9.272;2024-03-22T20:01:40;53.58;;;35.63;;
41167;SDS011;26906;45.658;9.272;2024-03-22T20:04:07;66.97;;;37.65;;
41167;SDS011;26906;45.658;9.272;2024-03-22T20:06:32;54.88;;;36.53;;
41167;SDS011;26906;45.658;9.272;2024-03-22T20:08:58;62.17;;;35.50;;
41167;SDS011;26906;45.658;9.272;2024-03-22T20:11:24;58.83;;;36.67;;
41167;SDS011;26906;45.658;9.272;2024-03-22T20:13:49;54.47;;;35.22;;
41167;SDS011;26906;45.658;9.272;2024-03-22T20:16:15;68.50;;;38.47;;
41167;SDS011;26906;45.658;9.272;2024-03-22T20:18:41;63.47;;;37.20;;
41167;SDS011;26906;45.658;9.272;2024-03-22T20:21:07;65.70;;;38.17;;
41167;SDS011;26906;45.658;9.272;2024-03-22T20:23:38;65.13;;;37.78;;
41167;SDS011;26906;45.658;9.272;2024-03-22T20:26:04;58.55;;;36.80;;
41167;SDS011;26906;45.658;9.272;2024-03-22T20:28:30;55.53;;;36.45;;
41167;SDS011;26906;45.658;9.272;2024-03-22T20:30:56;58.72;;;37.15;;
41167;SDS011;26906;45.658;9.272;2024-03-22T20:33:21;60.55;;;36.20;;
